sensor_id;sensor_type;location;lat;lon;timestamp;P1;durP1;ratioP1;P2;durP2;ratioP2
24030;SDS011;12240;51.142;22.486;2024-03-02T00:02:50;37.60;;;17.20;;
24030;SDS011;12240;51.142;22.486;2024-03-02T00:05:18;40.40;;;18.30;;
24030;SDS011;12240;51.142;22.486;2024-03-02T00:07:55;39.50;;;18.60;;
24030;SDS011;12240;51.142;22.486;2024-03-02T00:10:27;41.20;;;18.60;;
24030;SDS011;12240;51.142;22.486;2024-03-02T00:13:03;37.10;;;16.10;;
24030;SDS011;12240;51.142;22.486;2024-03-02T00:18:11;39.90;;;18.00;;
24030;SDS011;12240;51.142;22.486;2024-03-02T00:20:41;37.90;;;16.30;;
24030;SDS011;12240;51.142;22.486;2024-03-02T00:23:09;40.50;;;18.90;;
24030;SDS011;12240;51.142;22.486;2024-03-02T00:25:49;40.00;;;17.00;;
24030;SDS011;12240;51.142;22.486;2024-03-02T00:28:20;36.60;;;18.10;;
24030;SDS011;12240;51.142;22.486;2024-03-02T00:30:54;37.60;;;16.70;;
24030;SDS011;12240;51.142;22.486;2024-03-02T00:33:26;39.00;;;18.70;;
24030;SDS011;12240;51.142;22.486;2024-03-02T00:35:56;38.80;;;18.50;;
24030;SDS011;12240;51.142;22.486;2024-03-02T00:38:23;39.60;;;17.90;;
24030;SDS011;12240;51.142;22.486;2024-03-02T00:40:50;39.00;;;16.90;;
24030;SDS011;12240;51.142;22.486;2024-03-02T00:45:54;38.20;;;18.00;;
24030;SDS011;12240;51.142;22.486;2024-03-02T00:48:21;40.20;;;17.40;;
24030;SDS011;12240;51.142;22.486;2024-03-02T00:50:50;38.40;;;16.50;;
24030;SDS011;12240;51.142;22.486;2024-03-02T00:53:19;37.50;;;16.90;;
24030;SDS011;12240;51.142;22.486;2024-03-02T00:55:52;38.60;;;16.50;;
24030;SDS011;12240;51.142;22.486;2024-03-02T00:58:19;41.40;;;18.10;;
24030;SDS011;12240;51.142;22.486;2024-03-02T01:00:46;41.90;;;18.70;;
24030;SDS011;12240;51.142;22.486;2024-03-02T01:03:12;40.20;;;18.30;;
24030;SDS011;12240;51.142;22.486;2024-03-02T01:05:43;43.10;;;17.70;;
24030;SDS011;12240;51.142;22.486;2024-03-02T01:08:10;43.90;;;17.80;;
24030;SDS011;12240;51.142;22.486;2024-03-02T01:10:37;44.30;;;18.40;;
24030;SDS011;12240;51.142;22.486;2024-03-02T01:13:04;43.50;;;20.00;;
24030;SDS011;12240;51.142;22.486;2024-03-02T01:15:31;42.30;;;16.60;;
24030;SDS011;12240;51.142;22.486;2024-03-02T01:17:57;40.20;;;17.10;;
24030;SDS011;12240;51.142;22.486;2024-03-02T01:20:24;42.30;;;18.70;;
24030;SDS011;12240;51.142;22.486;2024-03-02T01:22:51;38.20;;;17.00;;
24030;SDS011;12240;51.142;22.486;2024-03-02T01:25:18;41.80;;;17.30;;
24030;SDS011;12240;51.142;22.486;2024-03-02T01:27:45;41.50;;;18.40;;
24030;SDS011;12240;51.142;22.486;2024-03-02T01:30:15;37.10;;;18.00;;
24030;SDS011;12240;51.142;22.486;2024-03-02T01:32:42;46.50;;;19.30;;
24030;SDS011;12240;51.142;22.486;2024-03-02T01:35:09;35.50;;;17.10;;
24030;SDS011;12240;51.142;22.486;2024-03-02T01:37:36;39.80;;;16.60;;
24030;SDS011;12240;51.142;22.486;2024-03-02T01:40:03;45.90;;;18.90;;
24030;SDS011;12240;51.142;22.486;2024-03-02T01:42:38;39.00;;;17.00;;
24030;SDS011;12240;51.142;22.486;2024-03-02T01:45:06;37.70;;;15.20;;
24030;SDS011;12240;51.142;22.486;2024-03-02T01:47:34;37.90;;;17.70;;
24030;SDS011;12240;51.142;22.486;2024-03-02T01:50:01;40.30;;;17.60;;
24030;SDS011;12240;51.142;22.486;2024-03-02T01:52:28;39.50;;;18.70;;
24030;SDS011;12240;51.142;22.486;2024-03-02T01:54:56;40.30;;;16.90;;
24030;SDS011;12240;51.142;22.486;2024-03-02T01:57:23;45.90;;;18.80;;
24030;SDS011;12240;51.142;22.486;2024-03-02T01:59:49;48.60;;;18.60;;
24030;SDS011;12240;51.142;22.486;2024-03-02T02:02:19;39.30;;;17.50;;
24030;SDS011;12240;51.142;22.486;2024-03-02T02:04:46;43.80;;;17.30;;
24030;SDS011;12240;51.142;22.486;2024-03-02T02:07:13;46.60;;;20.10;;
24030;SDS011;12240;51.142;22.486;2024-03-02T02:09:41;49.80;;;20.70;;
24030;SDS011;12240;51.142;22.486;2024-03-02T02:12:09;45.60;;;17.60;;
24030;SDS011;12240;51.142;22.486;2024-03-02T02:14:36;45.60;;;20.40;;
24030;SDS011;12240;51.142;22.486;2024-03-02T02:17:03;47.60;;;20.70;;
24030;SDS011;12240;51.142;22.486;2024-03-02T02:19:30;44.20;;;17.00;;
24030;SDS011;12240;51.142;22.486;2024-03-02T02:21:56;49.30;;;19.50;;
24030;SDS011;12240;51.142;22.486;2024-03-02T02:24:23;43.10;;;18.70;;
24030;SDS011;12240;51.142;22.486;2024-03-02T02:26:50;46.40;;;19.30;;
24030;SDS011;12240;51.142;22.486;2024-03-02T02:29:16;49.50;;;19.20;;
24030;SDS011;12240;51.142;22.486;2024-03-02T02:31:43;49.10;;;18.10;;
24030;SDS011;12240;51.142;22.486;2024-03-02T02:34:10;47.10;;;19.80;;
24030;SDS011;12240;51.142;22.486;2024-03-02T02:36:39;51.50;;;20.30;;
24030;SDS011;12240;51.142;22.486;2024-03-02T02:39:07;47.00;;;18.30;;
24030;SDS011;12240;51.142;22.486;2024-03-02T02:41:38;43.80;;;19.60;;
24030;SDS011;12240;51.142;22.486;2024-03-02T02:44:05;42.80;;;18.90;;
24030;SDS011;12240;51.142;22.486;2024-03-02T02:46:32;47.80;;;19.50;;
24030;SDS011;12240;51.142;22.486;2024-03-02T02:48:58;47.80;;;18.30;;
24030;SDS011;12240;51.142;22.486;2024-03-02T02:51:25;45.40;;;18.40;;
24030;SDS011;12240;51.142;22.486;2024-03-02T02:53:52;49.80;;;19.70;;
24030;SDS011;12240;51.142;22.486;2024-03-02T02:56:19;53.00;;;19.80;;
24030;SDS011;12240;51.142;22.486;2024-03-02T02:58:46;49.10;;;19.20;;
24030;SDS011;12240;51.142;22.486;2024-03-02T03:04:07;48.10;;;18.10;;
24030;SDS011;12240;51.142;22.486;2024-03-02T03:06:34;50.10;;;18.60;;
24030;SDS011;12240;51.142;22.486;2024-03-02T03:09:01;47.90;;;20.50;;
24030;SDS011;12240;51.142;22.486;2024-03-02T03:11:28;47.50;;;19.00;;
24030;SDS011;12240;51.142;22.486;2024-03-02T03:13:55;50.60;;;19.30;;
24030;SDS011;12240;51.142;22.486;2024-03-02T03:16:22;51.30;;;19.90;;
24030;SDS011;12240;51.142;22.486;2024-03-02T03:18:49;54.00;;;20.30;;
24030;SDS011;12240;51.142;22.486;2024-03-02T03:21:18;57.30;;;19.40;;
24030;SDS011;12240;51.142;22.486;2024-03-02T03:23:44;46.20;;;18.60;;
24030;SDS011;12240;51.142;22.486;2024-03-02T03:26:11;41.80;;;19.40;;
24030;SDS011;12240;51.142;22.486;2024-03-02T03:28:38;48.00;;;20.80;;
24030;SDS011;12240;51.142;22.486;2024-03-02T03:31:05;52.20;;;19.00;;
24030;SDS011;12240;51.142;22.486;2024-03-02T03:33:32;51.00;;;18.70;;
24030;SDS011;12240;51.142;22.486;2024-03-02T03:35:59;50.40;;;20.90;;
24030;SDS011;12240;51.142;22.486;2024-03-02T03:38:26;47.10;;;19.60;;
24030;SDS011;12240;51.142;22.486;2024-03-02T03:40:53;48.10;;;19.40;;
24030;SDS011;12240;51.142;22.486;2024-03-02T03:43:20;49.70;;;18.90;;
24030;SDS011;12240;51.142;22.486;2024-03-02T03:45:46;52.40;;;18.40;;
24030;SDS011;12240;51.142;22.486;2024-03-02T03:48:13;46.60;;;18.30;;
24030;SDS011;12240;51.142;22.486;2024-03-02T03:50:40;50.70;;;20.80;;
24030;SDS011;12240;51.142;22.486;2024-03-02T03:53:07;54.50;;;21.10;;
24030;SDS011;12240;51.142;22.486;2024-03-02T03:55:33;57.10;;;23.00;;
24030;SDS011;12240;51.142;22.486;2024-03-02T03:58:00;44.00;;;19.90;;
24030;SDS011;12240;51.142;22.486;2024-03-02T04:00:27;49.10;;;18.70;;
24030;SDS011;12240;51.142;22.486;2024-03-02T04:02:53;48.10;;;18.30;;
24030;SDS011;12240;51.142;22.486;2024-03-02T04:05:20;45.00;;;19.90;;
24030;SDS011;12240;51.142;22.486;2024-03-02T04:07:47;50.90;;;22.20;;
24030;SDS011;12240;51.142;22.486;2024-03-02T04:10:14;47.90;;;18.30;;
24030;SDS011;12240;51.142;22.486;2024-03-02T04:12:42;57.40;;;20.60;;
24030;SDS011;12240;51.142;22.486;2024-03-02T04:15:09;51.80;;;21.50;;
24030;SDS011;12240;51.142;22.486;2024-03-02T04:17:36;45.50;;;18.10;;
24030;SDS011;12240;51.142;22.486;2024-03-02T04:20:03;50.10;;;18.70;;
24030;SDS011;12240;51.142;22.486;2024-03-02T04:22:32;53.10;;;20.00;;
24030;SDS011;12240;51.142;22.486;2024-03-02T04:25:00;48.30;;;18.70;;
24030;SDS011;12240;51.142;22.486;2024-03-02T04:27:27;45.40;;;17.90;;
24030;SDS011;12240;51.142;22.486;2024-03-02T04:29:53;55.50;;;20.50;;
24030;SDS011;12240;51.142;22.486;2024-03-02T04:32:20;48.70;;;20.10;;
24030;SDS011;12240;51.142;22.486;2024-03-02T04:34:47;54.20;;;19.90;;
24030;SDS011;12240;51.142;22.486;2024-03-02T04:37:14;49.00;;;18.70;;
24030;SDS011;12240;51.142;22.486;2024-03-02T04:39:41;47.30;;;20.50;;
24030;SDS011;12240;51.142;22.486;2024-03-02T04:42:08;44.30;;;18.20;;
24030;SDS011;12240;51.142;22.486;2024-03-02T04:44:35;44.10;;;18.00;;
24030;SDS011;12240;51.142;22.486;2024-03-02T04:47:03;50.00;;;20.60;;
24030;SDS011;12240;51.142;22.486;2024-03-02T04:49:30;48.00;;;20.30;;
24030;SDS011;12240;51.142;22.486;2024-03-02T04:51:57;57.50;;;23.30;;
24030;SDS011;12240;51.142;22.486;2024-03-02T04:54:24;54.90;;;19.00;;
24030;SDS011;12240;51.142;22.486;2024-03-02T04:56:51;58.00;;;21.90;;
24030;SDS011;12240;51.142;22.486;2024-03-02T04:59:18;53.40;;;21.40;;
24030;SDS011;12240;51.142;22.486;2024-03-02T05:01:45;53.20;;;20.10;;
24030;SDS011;12240;51.142;22.486;2024-03-02T05:04:13;57.60;;;21.50;;
24030;SDS011;12240;51.142;22.486;2024-03-02T05:06:41;59.70;;;23.70;;
24030;SDS011;12240;51.142;22.486;2024-03-02T05:09:08;58.20;;;21.80;;
24030;SDS011;12240;51.142;22.486;2024-03-02T05:11:35;61.40;;;21.90;;
24030;SDS011;12240;51.142;22.486;2024-03-02T05:14:23;65.60;;;24.80;;
24030;SDS011;12240;51.142;22.486;2024-03-02T05:16:50;54.80;;;21.50;;
24030;SDS011;12240;51.142;22.486;2024-03-02T05:19:16;59.40;;;22.30;;
24030;SDS011;12240;51.142;22.486;2024-03-02T05:21:43;55.90;;;23.30;;
24030;SDS011;12240;51.142;22.486;2024-03-02T05:24:10;72.60;;;26.90;;
24030;SDS011;12240;51.142;22.486;2024-03-02T05:26:36;64.90;;;24.50;;
24030;SDS011;12240;51.142;22.486;2024-03-02T05:29:03;59.00;;;23.00;;
24030;SDS011;12240;51.142;22.486;2024-03-02T05:31:29;64.80;;;23.60;;
24030;SDS011;12240;51.142;22.486;2024-03-02T05:33:56;69.40;;;24.40;;
24030;SDS011;12240;51.142;22.486;2024-03-02T05:36:24;72.70;;;25.60;;
24030;SDS011;12240;51.142;22.486;2024-03-02T05:38:50;63.60;;;26.80;;
24030;SDS011;12240;51.142;22.486;2024-03-02T05:41:18;76.00;;;26.60;;
24030;SDS011;12240;51.142;22.486;2024-03-02T05:43:44;76.70;;;26.90;;
24030;SDS011;12240;51.142;22.486;2024-03-02T05:46:11;80.40;;;30.20;;
24030;SDS011;12240;51.142;22.486;2024-03-02T05:48:38;81.20;;;29.40;;
24030;SDS011;12240;51.142;22.486;2024-03-02T05:51:04;74.90;;;28.40;;
24030;SDS011;12240;51.142;22.486;2024-03-02T05:53:31;87.50;;;34.30;;
24030;SDS011;12240;51.142;22.486;2024-03-02T05:55:58;94.20;;;32.80;;
24030;SDS011;12240;51.142;22.486;2024-03-02T05:58:29;85.40;;;29.90;;
24030;SDS011;12240;51.142;22.486;2024-03-02T06:01:14;90.70;;;34.10;;
24030;SDS011;12240;51.142;22.486;2024-03-02T06:03:41;91.90;;;34.20;;
24030;SDS011;12240;51.142;22.486;2024-03-02T06:06:08;96.10;;;32.70;;
24030;SDS011;12240;51.142;22.486;2024-03-02T06:08:35;98.20;;;34.40;;
24030;SDS011;12240;51.142;22.486;2024-03-02T06:11:02;111.00;;;40.50;;
24030;SDS011;12240;51.142;22.486;2024-03-02T06:13:29;106.10;;;36.30;;
24030;SDS011;12240;51.142;22.486;2024-03-02T06:15:55;120.80;;;38.80;;
24030;SDS011;12240;51.142;22.486;2024-03-02T06:18:22;113.20;;;40.70;;
24030;SDS011;12240;51.142;22.486;2024-03-02T06:20:48;109.40;;;37.50;;
24030;SDS011;12240;51.142;22.486;2024-03-02T06:23:15;116.20;;;38.80;;
24030;SDS011;12240;51.142;22.486;2024-03-02T06:25:42;114.90;;;39.30;;
24030;SDS011;12240;51.142;22.486;2024-03-02T06:28:09;112.40;;;40.00;;
24030;SDS011;12240;51.142;22.486;2024-03-02T06:30:36;110.00;;;37.50;;
24030;SDS011;12240;51.142;22.486;2024-03-02T06:33:02;109.00;;;37.10;;
24030;SDS011;12240;51.142;22.486;2024-03-02T06:35:30;117.10;;;41.40;;
24030;SDS011;12240;51.142;22.486;2024-03-02T06:37:57;103.10;;;38.20;;
24030;SDS011;12240;51.142;22.486;2024-03-02T06:40:23;93.20;;;36.10;;
24030;SDS011;12240;51.142;22.486;2024-03-02T06:42:50;95.20;;;34.60;;
24030;SDS011;12240;51.142;22.486;2024-03-02T06:45:17;105.90;;;37.50;;
24030;SDS011;12240;51.142;22.486;2024-03-02T06:47:43;106.30;;;39.50;;
24030;SDS011;12240;51.142;22.486;2024-03-02T06:50:10;94.30;;;36.40;;
24030;SDS011;12240;51.142;22.486;2024-03-02T06:52:37;100.50;;;39.20;;
24030;SDS011;12240;51.142;22.486;2024-03-02T06:55:05;103.80;;;37.30;;
24030;SDS011;12240;51.142;22.486;2024-03-02T06:57:32;101.90;;;35.20;;
24030;SDS011;12240;51.142;22.486;2024-03-02T06:59:59;90.10;;;36.40;;
24030;SDS011;12240;51.142;22.486;2024-03-02T07:02:26;91.40;;;35.20;;
24030;SDS011;12240;51.142;22.486;2024-03-02T07:04:55;97.60;;;34.30;;
24030;SDS011;12240;51.142;22.486;2024-03-02T07:07:22;89.30;;;34.60;;
24030;SDS011;12240;51.142;22.486;2024-03-02T07:09:49;86.10;;;33.10;;
24030;SDS011;12240;51.142;22.486;2024-03-02T07:12:15;89.90;;;34.50;;
24030;SDS011;12240;51.142;22.486;2024-03-02T07:14:42;82.60;;;30.30;;
24030;SDS011;12240;51.142;22.486;2024-03-02T07:17:27;85.30;;;35.60;;
24030;SDS011;12240;51.142;22.486;2024-03-02T07:19:54;87.80;;;36.30;;
24030;SDS011;12240;51.142;22.486;2024-03-02T07:22:20;95.50;;;33.80;;
24030;SDS011;12240;51.142;22.486;2024-03-02T07:24:48;83.60;;;33.20;;
24030;SDS011;12240;51.142;22.486;2024-03-02T07:27:16;85.80;;;33.40;;
24030;SDS011;12240;51.142;22.486;2024-03-02T07:29:43;82.10;;;33.50;;
24030;SDS011;12240;51.142;22.486;2024-03-02T07:32:10;75.70;;;29.70;;
24030;SDS011;12240;51.142;22.486;2024-03-02T07:34:37;75.70;;;31.70;;
24030;SDS011;12240;51.142;22.486;2024-03-02T07:37:03;78.70;;;33.10;;
24030;SDS011;12240;51.142;22.486;2024-03-02T07:39:30;79.60;;;31.20;;
24030;SDS011;12240;51.142;22.486;2024-03-02T07:41:57;84.00;;;30.70;;
24030;SDS011;12240;51.142;22.486;2024-03-02T07:44:24;82.10;;;31.70;;
24030;SDS011;12240;51.142;22.486;2024-03-02T07:46:51;78.10;;;32.90;;
24030;SDS011;12240;51.142;22.486;2024-03-02T07:49:18;73.20;;;28.40;;
24030;SDS011;12240;51.142;22.486;2024-03-02T07:51:45;80.60;;;29.30;;
24030;SDS011;12240;51.142;22.486;2024-03-02T07:54:12;74.10;;;31.80;;
24030;SDS011;12240;51.142;22.486;2024-03-02T07:56:39;64.50;;;27.90;;
24030;SDS011;12240;51.142;22.486;2024-03-02T07:59:05;67.80;;;28.50;;
24030;SDS011;12240;51.142;22.486;2024-03-02T08:01:33;69.60;;;29.90;;
24030;SDS011;12240;51.142;22.486;2024-03-02T08:04:01;65.00;;;27.70;;
24030;SDS011;12240;51.142;22.486;2024-03-02T08:06:30;66.00;;;26.60;;
24030;SDS011;12240;51.142;22.486;2024-03-02T08:08:57;63.00;;;27.10;;
24030;SDS011;12240;51.142;22.486;2024-03-02T08:11:25;60.40;;;28.20;;
24030;SDS011;12240;51.142;22.486;2024-03-02T08:13:53;58.10;;;25.60;;
24030;SDS011;12240;51.142;22.486;2024-03-02T08:16:23;63.10;;;26.60;;
24030;SDS011;12240;51.142;22.486;2024-03-02T08:18:51;57.70;;;26.20;;
24030;SDS011;12240;51.142;22.486;2024-03-02T08:21:19;57.40;;;25.60;;
24030;SDS011;12240;51.142;22.486;2024-03-02T08:23:46;65.00;;;25.80;;
24030;SDS011;12240;51.142;22.486;2024-03-02T08:26:13;57.90;;;23.90;;
24030;SDS011;12240;51.142;22.486;2024-03-02T08:28:39;55.80;;;25.70;;
24030;SDS011;12240;51.142;22.486;2024-03-02T08:31:09;59.70;;;25.60;;
24030;SDS011;12240;51.142;22.486;2024-03-02T08:33:36;60.60;;;25.50;;
24030;SDS011;12240;51.142;22.486;2024-03-02T08:36:04;54.30;;;25.30;;
24030;SDS011;12240;51.142;22.486;2024-03-02T08:38:31;63.70;;;25.80;;
24030;SDS011;12240;51.142;22.486;2024-03-02T08:40:58;53.60;;;24.40;;
24030;SDS011;12240;51.142;22.486;2024-03-02T08:43:25;56.10;;;22.70;;
24030;SDS011;12240;51.142;22.486;2024-03-02T08:45:52;56.70;;;24.80;;
24030;SDS011;12240;51.142;22.486;2024-03-02T08:48:19;52.90;;;24.00;;
24030;SDS011;12240;51.142;22.486;2024-03-02T08:50:47;55.50;;;24.20;;
24030;SDS011;12240;51.142;22.486;2024-03-02T08:53:14;52.10;;;22.50;;
24030;SDS011;12240;51.142;22.486;2024-03-02T08:55:45;53.60;;;25.30;;
24030;SDS011;12240;51.142;22.486;2024-03-02T08:58:12;54.90;;;24.70;;
24030;SDS011;12240;51.142;22.486;2024-03-02T09:00:39;52.90;;;25.30;;
24030;SDS011;12240;51.142;22.486;2024-03-02T09:03:07;52.20;;;22.50;;
24030;SDS011;12240;51.142;22.486;2024-03-02T09:05:34;54.80;;;23.80;;
24030;SDS011;12240;51.142;22.486;2024-03-02T09:08:00;51.00;;;21.90;;
24030;SDS011;12240;51.142;22.486;2024-03-02T09:10:30;61.00;;;24.60;;
24030;SDS011;12240;51.142;22.486;2024-03-02T09:12:56;48.30;;;21.90;;
24030;SDS011;12240;51.142;22.486;2024-03-02T09:15:24;51.10;;;22.80;;
24030;SDS011;12240;51.142;22.486;2024-03-02T09:17:50;55.40;;;24.50;;
24030;SDS011;12240;51.142;22.486;2024-03-02T09:20:17;57.80;;;24.20;;
24030;SDS011;12240;51.142;22.486;2024-03-02T09:22:44;53.70;;;22.60;;
24030;SDS011;12240;51.142;22.486;2024-03-02T09:25:13;55.40;;;24.90;;
24030;SDS011;12240;51.142;22.486;2024-03-02T09:27:40;57.00;;;25.30;;
24030;SDS011;12240;51.142;22.486;2024-03-02T09:30:07;51.80;;;22.40;;
24030;SDS011;12240;51.142;22.486;2024-03-02T09:32:35;52.60;;;21.40;;
24030;SDS011;12240;51.142;22.486;2024-03-02T09:35:03;53.70;;;24.30;;
24030;SDS011;12240;51.142;22.486;2024-03-02T09:37:30;57.10;;;24.60;;
24030;SDS011;12240;51.142;22.486;2024-03-02T09:39:57;49.50;;;23.20;;
24030;SDS011;12240;51.142;22.486;2024-03-02T09:42:24;53.30;;;22.50;;
24030;SDS011;12240;51.142;22.486;2024-03-02T09:44:52;46.70;;;21.80;;
24030;SDS011;12240;51.142;22.486;2024-03-02T09:47:19;46.00;;;21.10;;
24030;SDS011;12240;51.142;22.486;2024-03-02T09:49:46;50.50;;;23.30;;
24030;SDS011;12240;51.142;22.486;2024-03-02T09:52:13;54.20;;;23.60;;
24030;SDS011;12240;51.142;22.486;2024-03-02T09:54:41;51.40;;;22.10;;
24030;SDS011;12240;51.142;22.486;2024-03-02T09:57:08;50.90;;;23.50;;
24030;SDS011;12240;51.142;22.486;2024-03-02T09:59:36;48.60;;;22.90;;
24030;SDS011;12240;51.142;22.486;2024-03-02T10:02:02;48.00;;;23.30;;
24030;SDS011;12240;51.142;22.486;2024-03-02T10:04:30;49.70;;;23.40;;
24030;SDS011;12240;51.142;22.486;2024-03-02T10:07:10;51.00;;;23.00;;
24030;SDS011;12240;51.142;22.486;2024-03-02T10:09:38;56.70;;;27.50;;
24030;SDS011;12240;51.142;22.486;2024-03-02T10:12:06;46.60;;;22.50;;
24030;SDS011;12240;51.142;22.486;2024-03-02T10:14:34;51.20;;;23.70;;
24030;SDS011;12240;51.142;22.486;2024-03-02T10:17:10;56.50;;;24.80;;
24030;SDS011;12240;51.142;22.486;2024-03-02T10:19:38;52.70;;;25.20;;
24030;SDS011;12240;51.142;22.486;2024-03-02T10:22:09;58.80;;;26.10;;
24030;SDS011;12240;51.142;22.486;2024-03-02T10:24:42;49.80;;;24.10;;
24030;SDS011;12240;51.142;22.486;2024-03-02T10:27:17;60.90;;;29.10;;
24030;SDS011;12240;51.142;22.486;2024-03-02T10:29:49;58.60;;;26.50;;
24030;SDS011;12240;51.142;22.486;2024-03-02T10:32:16;57.20;;;27.00;;
24030;SDS011;12240;51.142;22.486;2024-03-02T10:34:45;58.10;;;28.10;;
24030;SDS011;12240;51.142;22.486;2024-03-02T10:37:14;58.40;;;25.40;;
24030;SDS011;12240;51.142;22.486;2024-03-02T10:39:43;60.00;;;26.60;;
24030;SDS011;12240;51.142;22.486;2024-03-02T10:42:13;52.90;;;25.00;;
24030;SDS011;12240;51.142;22.486;2024-03-02T10:44:41;59.50;;;26.10;;
24030;SDS011;12240;51.142;22.486;2024-03-02T10:47:09;55.70;;;23.40;;
24030;SDS011;12240;51.142;22.486;2024-03-02T10:49:38;56.30;;;25.90;;
24030;SDS011;12240;51.142;22.486;2024-03-02T10:52:08;57.90;;;25.10;;
24030;SDS011;12240;51.142;22.486;2024-03-02T10:54:35;55.70;;;26.10;;
24030;SDS011;12240;51.142;22.486;2024-03-02T10:57:04;57.10;;;27.10;;
24030;SDS011;12240;51.142;22.486;2024-03-02T10:59:37;49.90;;;24.20;;
24030;SDS011;12240;51.142;22.486;2024-03-02T11:02:09;54.00;;;26.00;;
24030;SDS011;12240;51.142;22.486;2024-03-02T11:04:38;57.60;;;23.70;;
24030;SDS011;12240;51.142;22.486;2024-03-02T11:07:08;52.70;;;26.30;;
24030;SDS011;12240;51.142;22.486;2024-03-02T11:09:45;50.00;;;25.60;;
24030;SDS011;12240;51.142;22.486;2024-03-02T11:15:15;53.90;;;23.60;;
24030;SDS011;12240;51.142;22.486;2024-03-02T11:17:47;52.20;;;24.90;;
24030;SDS011;12240;51.142;22.486;2024-03-02T11:20:15;55.80;;;25.00;;
24030;SDS011;12240;51.142;22.486;2024-03-02T11:22:42;51.70;;;25.90;;
24030;SDS011;12240;51.142;22.486;2024-03-02T11:25:32;47.50;;;22.80;;
24030;SDS011;12240;51.142;22.486;2024-03-02T11:28:01;58.10;;;23.20;;
24030;SDS011;12240;51.142;22.486;2024-03-02T11:33:01;52.50;;;24.80;;
24030;SDS011;12240;51.142;22.486;2024-03-02T11:35:41;49.50;;;22.50;;
24030;SDS011;12240;51.142;22.486;2024-03-02T11:38:09;45.50;;;22.10;;
24030;SDS011;12240;51.142;22.486;2024-03-02T11:40:36;57.60;;;25.30;;
24030;SDS011;12240;51.142;22.486;2024-03-02T11:43:06;56.10;;;24.00;;
24030;SDS011;12240;51.142;22.486;2024-03-02T11:45:35;46.40;;;22.60;;
24030;SDS011;12240;51.142;22.486;2024-03-02T11:48:08;48.40;;;22.80;;
24030;SDS011;12240;51.142;22.486;2024-03-02T11:50:46;47.10;;;24.10;;
24030;SDS011;12240;51.142;22.486;2024-03-02T11:53:13;46.00;;;22.40;;
24030;SDS011;12240;51.142;22.486;2024-03-02T11:55:41;51.80;;;24.50;;
24030;SDS011;12240;51.142;22.486;2024-03-02T11:58:13;48.20;;;22.90;;
24030;SDS011;12240;51.142;22.486;2024-03-02T12:02:42;49.10;;;25.10;;
24030;SDS011;12240;51.142;22.486;2024-03-02T12:05:14;58.30;;;25.80;;
24030;SDS011;12240;51.142;22.486;2024-03-02T12:07:41;48.80;;;22.90;;
24030;SDS011;12240;51.142;22.486;2024-03-02T12:10:09;46.90;;;21.70;;
24030;SDS011;12240;51.142;22.486;2024-03-02T12:12:36;50.20;;;22.20;;
24030;SDS011;12240;51.142;22.486;2024-03-02T12:15:03;47.30;;;24.00;;
24030;SDS011;12240;51.142;22.486;2024-03-02T12:17:31;50.10;;;24.90;;
24030;SDS011;12240;51.142;22.486;2024-03-02T12:19:58;46.40;;;23.80;;
24030;SDS011;12240;51.142;22.486;2024-03-02T12:22:25;53.20;;;27.20;;
24030;SDS011;12240;51.142;22.486;2024-03-02T12:24:51;44.20;;;24.10;;
24030;SDS011;12240;51.142;22.486;2024-03-02T12:27:18;53.00;;;26.80;;
24030;SDS011;12240;51.142;22.486;2024-03-02T12:29:47;57.90;;;26.30;;
24030;SDS011;12240;51.142;22.486;2024-03-02T12:32:14;48.80;;;23.80;;
24030;SDS011;12240;51.142;22.486;2024-03-02T12:34:41;47.10;;;25.00;;
24030;SDS011;12240;51.142;22.486;2024-03-02T12:37:11;46.60;;;22.40;;
24030;SDS011;12240;51.142;22.486;2024-03-02T12:39:40;49.10;;;22.70;;
24030;SDS011;12240;51.142;22.486;2024-03-02T12:42:10;51.10;;;23.70;;
24030;SDS011;12240;51.142;22.486;2024-03-02T12:44:37;61.80;;;29.20;;
24030;SDS011;12240;51.142;22.486;2024-03-02T12:47:05;49.50;;;26.00;;
24030;SDS011;12240;51.142;22.486;2024-03-02T12:49:33;52.10;;;25.60;;
24030;SDS011;12240;51.142;22.486;2024-03-02T12:52:01;54.80;;;26.00;;
24030;SDS011;12240;51.142;22.486;2024-03-02T12:54:29;56.70;;;25.00;;
24030;SDS011;12240;51.142;22.486;2024-03-02T12:56:56;56.00;;;25.10;;
24030;SDS011;12240;51.142;22.486;2024-03-02T12:59:23;48.90;;;23.90;;
24030;SDS011;12240;51.142;22.486;2024-03-02T13:01:53;54.00;;;24.20;;
24030;SDS011;12240;51.142;22.486;2024-03-02T13:04:24;55.30;;;26.40;;
24030;SDS011;12240;51.142;22.486;2024-03-02T13:06:52;53.20;;;26.00;;
24030;SDS011;12240;51.142;22.486;2024-03-02T13:09:22;44.90;;;20.60;;
24030;SDS011;12240;51.142;22.486;2024-03-02T13:11:49;42.60;;;21.20;;
24030;SDS011;12240;51.142;22.486;2024-03-02T13:14:15;54.30;;;21.70;;
24030;SDS011;12240;51.142;22.486;2024-03-02T13:16:42;45.40;;;23.20;;
24030;SDS011;12240;51.142;22.486;2024-03-02T13:19:13;46.70;;;22.20;;
24030;SDS011;12240;51.142;22.486;2024-03-02T13:21:40;47.90;;;22.90;;
24030;SDS011;12240;51.142;22.486;2024-03-02T13:24:09;53.80;;;25.20;;
24030;SDS011;12240;51.142;22.486;2024-03-02T13:26:36;50.20;;;21.70;;
24030;SDS011;12240;51.142;22.486;2024-03-02T13:29:03;57.70;;;23.80;;
24030;SDS011;12240;51.142;22.486;2024-03-02T13:31:30;52.00;;;23.80;;
24030;SDS011;12240;51.142;22.486;2024-03-02T13:33:56;52.20;;;22.20;;
24030;SDS011;12240;51.142;22.486;2024-03-02T13:36:23;55.20;;;24.30;;
24030;SDS011;12240;51.142;22.486;2024-03-02T13:38:51;48.10;;;22.80;;
24030;SDS011;12240;51.142;22.486;2024-03-02T13:41:18;54.20;;;24.50;;
24030;SDS011;12240;51.142;22.486;2024-03-02T13:43:46;56.30;;;26.10;;
24030;SDS011;12240;51.142;22.486;2024-03-02T13:46:16;57.30;;;25.70;;
24030;SDS011;12240;51.142;22.486;2024-03-02T13:48:43;49.80;;;24.20;;
24030;SDS011;12240;51.142;22.486;2024-03-02T13:51:09;46.50;;;21.90;;
24030;SDS011;12240;51.142;22.486;2024-03-02T13:53:36;60.00;;;26.10;;
24030;SDS011;12240;51.142;22.486;2024-03-02T13:56:03;63.00;;;28.30;;
24030;SDS011;12240;51.142;22.486;2024-03-02T13:58:30;48.50;;;23.10;;
24030;SDS011;12240;51.142;22.486;2024-03-02T14:00:58;49.00;;;24.00;;
24030;SDS011;12240;51.142;22.486;2024-03-02T14:03:26;46.20;;;21.70;;
24030;SDS011;12240;51.142;22.486;2024-03-02T14:05:56;49.90;;;22.40;;
24030;SDS011;12240;51.142;22.486;2024-03-02T14:08:23;48.90;;;25.20;;
24030;SDS011;12240;51.142;22.486;2024-03-02T14:10:50;47.20;;;23.40;;
24030;SDS011;12240;51.142;22.486;2024-03-02T14:13:16;54.20;;;25.50;;
24030;SDS011;12240;51.142;22.486;2024-03-02T14:15:43;53.80;;;23.60;;
24030;SDS011;12240;51.142;22.486;2024-03-02T14:18:10;47.20;;;21.40;;
24030;SDS011;12240;51.142;22.486;2024-03-02T14:20:37;53.30;;;23.60;;
24030;SDS011;12240;51.142;22.486;2024-03-02T14:23:04;57.80;;;25.60;;
24030;SDS011;12240;51.142;22.486;2024-03-02T14:25:31;46.60;;;22.20;;
24030;SDS011;12240;51.142;22.486;2024-03-02T14:28:00;46.10;;;22.80;;
24030;SDS011;12240;51.142;22.486;2024-03-02T14:30:47;48.60;;;24.70;;